createdAt,value
2018-03-19T00:01:31.864Z,97495.38
2018-03-19T00:03:59.459Z,97496.76
2018-03-19T00:06:26.972Z,97501.42
2018-03-19T00:08:54.467Z,97502.52
2018-03-19T00:11:21.993Z,97506.87
2018-03-19T00:13:49.491Z,97504.05
2018-03-19T00:16:17.007Z,97507.66
2018-03-19T00:18:44.505Z,97506.28
2018-03-19T00:21:12.041Z,97511.42
2018-03-19T00:23:39.565Z,97507.18
2018-03-19T00:26:07.112Z,97507.73
2018-03-19T00:28:34.639Z,97507.18
2018-03-19T00:31:02.129Z,97509.92
2018-03-19T00:33:29.656Z,97513.55
2018-03-19T00:35:57.172Z,97508.91
2018-03-19T00:38:24.683Z,97510.98
2018-03-19T00:40:52.185Z,97506.27
2018-03-19T00:43:19.699Z,97505.38
2018-03-19T00:45:47.199Z,97509.98
2018-03-19T00:48:14.716Z,97510.95
2018-03-19T00:50:42.208Z,97509.56
2018-03-19T00:53:09.737Z,97508.02
2018-03-19T00:55:37.222Z,97509.81
2018-03-19T00:58:04.743Z,97513.97
2018-03-19T01:00:32.416Z,97513.92
2018-03-19T01:02:59.975Z,97510.58
2018-03-19T01:05:27.538Z,97507.34
2018-03-19T01:07:55.107Z,97509.30
2018-03-19T01:10:22.604Z,97508.95
2018-03-19T01:12:50.126Z,97509.01
2018-03-19T01:15:17.619Z,97511.09
2018-03-19T01:17:45.137Z,97513.80
2018-03-19T01:20:12.687Z,97514.63
2018-03-19T01:22:40.252Z,97514.56
2018-03-19T01:25:07.746Z,97511.58
2018-03-19T01:27:35.256Z,97505.78
2018-03-19T01:30:02.761Z,97511.28
2018-03-19T01:32:30.276Z,97512.30
2018-03-19T01:34:57.768Z,97505.30
2018-03-19T01:37:28.659Z,97499.20
2018-03-19T01:39:56.246Z,97505.41
2018-03-19T01:42:23.749Z,97502.56
2018-03-19T01:44:52.290Z,97503.59
2018-03-19T01:47:19.776Z,97502.88
2018-03-19T01:49:47.306Z,97501.73
2018-03-19T01:52:15.784Z,97508.98
2018-03-19T01:54:43.299Z,97511.77
2018-03-19T01:57:10.787Z,97511.00
2018-03-19T01:59:38.296Z,97515.30
2018-03-19T02:02:05.805Z,97517.53
2018-03-19T02:04:33.369Z,97515.20
2018-03-19T02:07:00.950Z,97510.52
2018-03-19T02:09:32.064Z,97514.90
2018-03-19T02:12:04.620Z,97510.83
2018-03-19T02:14:32.139Z,97513.39
2018-03-19T02:16:59.635Z,97515.00
2018-03-19T02:19:28.147Z,97517.16
2018-03-19T02:21:55.644Z,97513.56
2018-03-19T02:24:23.175Z,97515.37
2018-03-19T02:26:50.669Z,97516.63
2018-03-19T02:29:18.192Z,97521.27
2018-03-19T02:31:45.688Z,97521.58
2018-03-19T02:34:13.205Z,97520.58
2018-03-19T02:36:40.700Z,97520.26
2018-03-19T02:39:08.339Z,97519.95
2018-03-19T02:41:35.880Z,97527.37
2018-03-19T02:44:03.401Z,97518.77
2018-03-19T02:46:31.008Z,97522.76
2018-03-19T02:48:58.561Z,97523.20
2018-03-19T02:51:26.064Z,97529.70
2018-03-19T02:53:53.551Z,97527.84
2018-03-19T02:56:21.060Z,97530.41
2018-03-19T02:58:48.637Z,97529.45
2018-03-19T03:01:16.148Z,97536.49
2018-03-19T03:03:43.653Z,97534.02
2018-03-19T03:06:11.281Z,97536.45
2018-03-19T03:08:38.836Z,97540.02
2018-03-19T03:11:06.402Z,97539.25
2018-03-19T03:13:33.947Z,97543.51
2018-03-19T03:16:01.523Z,97539.92
2018-03-19T03:18:29.032Z,97539.84
2018-03-19T03:20:56.547Z,97536.09
2018-03-19T03:23:24.095Z,97539.84
2018-03-19T03:25:51.646Z,97537.77
2018-03-19T03:28:19.140Z,97542.33
2018-03-19T03:30:46.660Z,97544.28
2018-03-19T03:33:14.227Z,97540.17
2018-03-19T03:35:41.791Z,97537.55
2018-03-19T03:38:09.348Z,97541.29
2018-03-19T03:40:36.907Z,97543.86
2018-03-19T03:43:04.441Z,97549.12
2018-03-19T03:45:31.951Z,97543.32
2018-03-19T03:47:59.448Z,97545.11
2018-03-19T03:50:26.984Z,97543.86
2018-03-19T03:52:54.474Z,97543.39
2018-03-19T03:55:21.972Z,97546.37
2018-03-19T03:57:49.532Z,97549.12
2018-03-19T04:00:17.023Z,97550.91
2018-03-19T04:02:44.643Z,97550.06
2018-03-19T04:05:12.142Z,97544.34
2018-03-19T04:07:39.678Z,97552.12
2018-03-19T04:10:07.195Z,97555.91
2018-03-19T04:12:34.716Z,97552.87
2018-03-19T04:15:02.249Z,97550.98
2018-03-19T04:17:29.769Z,97550.36
2018-03-19T04:19:57.260Z,97558.07
2018-03-19T04:22:24.780Z,97549.64
2018-03-19T04:24:52.375Z,97553.23
2018-03-19T04:27:19.895Z,97556.53
2018-03-19T04:29:47.384Z,97553.43
2018-03-19T04:32:14.899Z,97555.52
2018-03-19T04:34:42.400Z,97558.96
2018-03-19T04:37:09.926Z,97557.66
2018-03-19T04:39:37.419Z,97559.98
2018-03-19T04:42:04.985Z,97559.28
2018-03-19T04:44:32.487Z,97553.73
2018-03-19T04:47:00.004Z,97552.83
2018-03-19T04:49:27.555Z,97557.20
2018-03-19T04:51:55.070Z,97557.95
2018-03-19T04:54:22.591Z,97551.52
2018-03-19T04:56:50.248Z,97554.60
2018-03-19T04:59:17.736Z,97553.85
2018-03-19T05:01:45.227Z,97555.34
2018-03-19T05:04:12.769Z,97552.69
2018-03-19T05:06:40.266Z,97553.73
2018-03-19T05:09:07.855Z,97555.39
2018-03-19T05:11:35.375Z,97553.70
2018-03-19T05:14:02.888Z,97555.46
2018-03-19T05:16:30.404Z,97558.19
2018-03-19T05:18:57.932Z,97556.18
2018-03-19T05:21:25.530Z,97556.41
2018-03-19T05:23:53.045Z,97558.91
2018-03-19T05:26:20.540Z,97557.84
2018-03-19T05:28:48.096Z,97558.67
2018-03-19T05:31:15.740Z,97555.46
2018-03-19T05:33:43.272Z,97551.70
2018-03-19T05:36:10.767Z,97547.28
2018-03-19T05:38:38.326Z,97555.02
2018-03-19T05:41:05.813Z,97553.61
2018-03-19T05:43:33.332Z,97555.81
2018-03-19T05:46:00.837Z,97550.95
2018-03-19T05:48:28.379Z,97555.64
2018-03-19T05:50:55.876Z,97550.09
2018-03-19T05:53:23.500Z,97551.81
2018-03-19T05:55:50.996Z,97555.14
2018-03-19T05:58:18.507Z,97555.21
2018-03-19T06:00:46.012Z,97554.60
2018-03-19T06:03:13.533Z,97554.48
2018-03-19T06:05:41.027Z,97555.73
2018-03-19T06:08:08.551Z,97552.39
2018-03-19T06:10:36.089Z,97557.47
2018-03-19T06:13:03.582Z,97561.31
2018-03-19T06:15:31.091Z,97562.48
2018-03-19T06:17:58.603Z,97559.57
2018-03-19T06:20:26.143Z,97561.06
2018-03-19T06:22:53.695Z,97569.23
2018-03-19T06:25:21.277Z,97560.92
2018-03-19T06:27:48.853Z,97566.44
2018-03-19T06:30:16.365Z,97573.35
2018-03-19T06:32:43.871Z,97578.96
2018-03-19T06:35:11.388Z,97576.07
2018-03-19T06:37:38.886Z,97577.57
2018-03-19T06:40:06.404Z,97575.70
2018-03-19T06:42:33.901Z,97576.86
2018-03-19T06:45:01.429Z,97580.55
2018-03-19T06:47:28.927Z,97582.21
2018-03-19T06:49:56.563Z,97580.50
2018-03-19T06:52:24.048Z,97584.42
2018-03-19T06:54:51.552Z,97590.34
2018-03-19T06:57:19.081Z,97592.50
2018-03-19T06:59:46.591Z,97586.21
2018-03-19T07:02:14.112Z,97586.61
2018-03-19T07:04:41.604Z,97581.21
2018-03-19T07:07:09.117Z,97584.24
2018-03-19T07:09:36.640Z,97581.16
2018-03-19T07:12:04.188Z,97577.83
2018-03-19T07:14:31.678Z,97569.34
2018-03-19T07:16:59.191Z,97573.42
2018-03-19T07:19:26.692Z,97570.37
2018-03-19T07:21:54.222Z,97575.17
2018-03-19T07:24:21.900Z,97577.84
2018-03-19T07:26:49.339Z,97581.30
2018-03-19T07:29:16.840Z,97578.80
2018-03-19T07:31:44.456Z,97581.09
2018-03-19T07:34:11.948Z,97587.27
2018-03-19T07:36:39.471Z,97588.47
2018-03-19T07:39:07.042Z,97593.72
2018-03-19T07:41:34.594Z,97591.09
2018-03-19T07:44:02.259Z,97586.77
2018-03-19T07:46:29.811Z,97585.95
2018-03-19T07:48:57.299Z,97591.72
2018-03-19T07:51:30.776Z,97587.66
2018-03-19T07:54:00.264Z,97585.56
2018-03-19T07:56:28.774Z,97584.23
2018-03-19T07:58:56.272Z,97583.16
2018-03-19T08:01:23.893Z,97581.63
2018-03-19T08:03:51.436Z,97582.92
2018-03-19T08:06:18.928Z,97587.00
2018-03-19T08:08:46.461Z,97591.53
2018-03-19T08:11:13.951Z,97591.77
2018-03-19T08:13:41.498Z,97595.98
2018-03-19T08:16:09.000Z,97596.78
2018-03-19T08:18:42.358Z,97598.86
2018-03-19T08:21:09.884Z,97605.69
2018-03-19T08:23:37.428Z,97598.89
2018-03-19T08:26:04.916Z,97605.52
2018-03-19T08:28:32.444Z,97609.11
2018-03-19T08:30:59.937Z,97608.16
2018-03-19T08:33:27.464Z,97603.66
2018-03-19T08:35:54.957Z,97608.27
2018-03-19T08:38:22.492Z,97604.73
2018-03-19T08:40:49.994Z,97602.47
2018-03-19T08:43:17.624Z,97604.23
2018-03-19T08:45:45.117Z,97607.50
2018-03-19T08:48:12.740Z,97610.41
2018-03-19T08:50:40.232Z,97615.41
2018-03-19T08:53:07.756Z,97607.79
2018-03-19T08:55:35.248Z,97609.67
2018-03-19T08:58:02.788Z,97616.35
2018-03-19T09:00:30.299Z,97614.22
2018-03-19T09:02:57.841Z,97619.72
2018-03-19T09:05:25.335Z,97626.31
2018-03-19T09:07:52.823Z,97627.13
2018-03-19T09:10:20.360Z,97628.45
2018-03-19T09:12:48.001Z,97619.93
2018-03-19T09:15:15.530Z,97621.95
2018-03-19T09:17:43.083Z,97625.33
2018-03-19T09:20:10.685Z,97620.34
2018-03-19T09:22:38.278Z,97618.20
2018-03-19T09:25:05.796Z,97620.25
2018-03-19T09:27:33.293Z,97623.58
2018-03-19T09:30:01.036Z,97615.16
2018-03-19T09:32:28.543Z,97621.22
2018-03-19T09:34:56.055Z,97622.55
2018-03-19T09:37:23.672Z,97621.05
2018-03-19T09:39:51.208Z,97628.55
2018-03-19T09:42:18.712Z,97631.87
2018-03-19T09:44:46.231Z,97628.38
2018-03-19T09:47:13.723Z,97640.88
2018-03-19T09:49:41.237Z,97636.99
2018-03-19T09:52:08.754Z,97636.08
2018-03-19T09:54:36.299Z,97638.36
2018-03-19T09:57:04.088Z,97641.09
2018-03-19T09:59:31.681Z,97638.49
2018-03-19T10:01:59.252Z,97644.46
2018-03-19T10:04:26.744Z,97641.78
2018-03-19T10:06:54.363Z,97641.06
2018-03-19T10:09:21.881Z,97646.46
2018-03-19T10:11:49.423Z,97649.91
2018-03-19T10:14:16.948Z,97645.30
2018-03-19T10:16:44.499Z,97647.95
2018-03-19T10:19:11.994Z,97646.92
2018-03-19T10:21:39.654Z,97646.91
2018-03-19T10:24:07.153Z,97645.63
2018-03-19T10:26:34.696Z,97645.30
2018-03-19T10:29:02.187Z,97654.70
2018-03-19T10:31:29.774Z,97656.95
2018-03-19T10:33:57.320Z,97663.08
2018-03-19T10:36:24.878Z,97662.12
2018-03-19T10:38:52.375Z,97661.64
2018-03-19T10:41:19.961Z,97655.52
2018-03-19T10:43:47.476Z,97658.97
2018-03-19T10:46:15.112Z,97662.88
2018-03-19T10:48:42.608Z,97667.95
2018-03-19T10:51:10.128Z,97664.03
2018-03-19T10:53:37.700Z,97675.69
2018-03-19T10:56:05.239Z,97677.61
2018-03-19T10:58:32.738Z,97673.16
2018-03-19T11:01:05.896Z,97672.40
2018-03-19T11:03:33.388Z,97664.98
2018-03-19T11:09:05.636Z,97669.34
2018-03-19T11:11:33.156Z,97677.07
2018-03-19T11:14:00.681Z,97676.97
2018-03-19T11:16:28.237Z,97673.87
2018-03-19T11:18:55.792Z,97670.87
2018-03-19T11:21:23.319Z,97672.40
2018-03-19T11:23:50.807Z,97660.36
2018-03-19T11:26:18.352Z,97664.91
2018-03-19T11:28:45.928Z,97671.41
2018-03-19T11:31:13.489Z,97668.10
2018-03-19T11:33:41.012Z,97663.63
2018-03-19T11:36:08.543Z,97664.34
2018-03-19T11:38:36.284Z,97671.83
2018-03-19T11:41:03.820Z,97678.23
2018-03-19T11:43:31.413Z,97668.37
2018-03-19T11:45:58.915Z,97666.98
2018-03-19T11:48:26.511Z,97664.34
2018-03-19T11:50:54.144Z,97668.08
2018-03-19T11:53:21.728Z,97670.95
2018-03-19T11:55:49.316Z,97672.59
2018-03-19T11:58:16.843Z,97679.81
2018-03-19T12:00:44.336Z,97678.88
2018-03-19T12:03:11.848Z,97678.69
2018-03-19T12:05:39.339Z,97676.77
2018-03-19T12:08:06.860Z,97683.36
2018-03-19T12:10:34.367Z,97675.87
2018-03-19T12:13:01.908Z,97680.84
2018-03-19T12:15:30.357Z,97677.45
2018-03-19T12:17:57.892Z,97680.53
2018-03-19T12:20:25.384Z,97675.19
2018-03-19T12:22:52.891Z,97675.30
2018-03-19T12:25:20.391Z,97676.84
2018-03-19T12:27:47.916Z,97676.69
2018-03-19T12:30:15.410Z,97668.70
2018-03-19T12:32:42.898Z,97666.71
2018-03-19T12:35:10.440Z,97669.27
2018-03-19T12:37:37.934Z,97671.98
2018-03-19T12:40:05.573Z,97662.72
2018-03-19T12:42:33.140Z,97662.81
2018-03-19T12:45:00.666Z,97666.29
2018-03-19T12:47:28.155Z,97661.28
2018-03-19T12:49:55.752Z,97660.72
2018-03-19T12:52:23.248Z,97659.17
2018-03-19T12:54:50.767Z,97656.73
2018-03-19T12:57:18.260Z,97661.52
2018-03-19T12:59:45.785Z,97663.84
2018-03-19T13:02:13.296Z,97664.56
2018-03-19T13:04:40.819Z,97665.61
2018-03-19T13:07:08.339Z,97665.88
2018-03-19T13:09:35.893Z,97660.84
2018-03-19T13:12:03.444Z,97668.43
2018-03-19T13:14:30.984Z,97661.05
2018-03-19T13:16:58.491Z,97662.85
2018-03-19T13:19:26.222Z,97662.27
2018-03-19T13:21:53.676Z,97654.81
2018-03-19T13:24:21.201Z,97658.12
2018-03-19T13:26:48.736Z,97663.60
2018-03-19T13:29:16.285Z,97663.45
2018-03-19T13:31:43.813Z,97664.41
2018-03-19T13:34:11.315Z,97663.13
2018-03-19T13:36:38.805Z,97662.92
2018-03-19T13:39:06.301Z,97663.69
2018-03-19T13:41:33.816Z,97669.39
2018-03-19T13:44:01.413Z,97669.78
2018-03-19T13:46:28.968Z,97666.23
2018-03-19T13:48:56.459Z,97668.05
2018-03-19T13:51:24.007Z,97664.95
2018-03-19T13:53:51.547Z,97664.47
2018-03-19T13:56:19.086Z,97667.50
2018-03-19T13:58:46.600Z,97670.83
2018-03-19T14:01:14.139Z,97673.63
2018-03-19T14:03:41.669Z,97675.72
2018-03-19T14:06:09.216Z,97666.66
2018-03-19T14:08:36.709Z,97672.55
2018-03-19T14:11:04.256Z,97662.89
2018-03-19T14:13:31.794Z,97668.36
2018-03-19T14:15:59.483Z,97663.98
2018-03-19T14:18:27.048Z,97659.41
2018-03-19T14:20:54.575Z,97661.23
2018-03-19T14:23:22.172Z,97660.58
2018-03-19T14:25:49.758Z,97656.75
2018-03-19T14:28:17.241Z,97652.92
2018-03-19T14:30:44.863Z,97657.98
2018-03-19T14:33:12.358Z,97665.31
2018-03-19T14:35:39.856Z,97661.62
2018-03-19T14:38:07.395Z,97652.97
2018-03-19T14:40:34.901Z,97662.16
2018-03-19T14:43:02.438Z,97659.67
2018-03-19T14:45:30.024Z,97665.78
2018-03-19T14:47:57.535Z,97661.14
2018-03-19T14:50:25.032Z,97664.62
2018-03-19T14:52:52.569Z,97665.61
2018-03-19T14:55:20.080Z,97655.83
2018-03-19T14:57:47.596Z,97661.16
2018-03-19T15:00:15.107Z,97661.98
2018-03-19T15:02:42.632Z,97665.73
2018-03-19T15:05:10.136Z,97669.09
2018-03-19T15:07:37.712Z,97667.11
2018-03-19T15:10:05.222Z,97667.64
2018-03-19T15:12:32.747Z,97666.53
2018-03-19T15:15:00.244Z,97663.97
2018-03-19T15:17:27.778Z,97661.93
2018-03-19T15:19:56.221Z,97662.23
2018-03-19T15:22:23.742Z,97662.86
2018-03-19T15:24:51.260Z,97662.05
2018-03-19T15:27:18.789Z,97652.64
2018-03-19T15:29:46.288Z,97657.92
2018-03-19T15:32:13.876Z,97668.22
2018-03-19T15:34:41.371Z,97662.33
2018-03-19T15:37:08.966Z,97666.91
2018-03-19T15:39:36.476Z,97654.48
2018-03-19T15:42:03.967Z,97661.34
2018-03-19T15:44:31.557Z,97658.38
2018-03-19T15:46:59.061Z,97652.16
2018-03-19T15:49:26.587Z,97661.01
2018-03-19T15:51:54.107Z,97654.27
2018-03-19T15:54:21.635Z,97655.86
2018-03-19T15:56:49.234Z,97654.89
2018-03-19T15:59:16.751Z,97652.34
2018-03-19T16:01:44.243Z,97655.41
2018-03-19T16:04:11.796Z,97667.02
2018-03-19T16:06:39.383Z,97660.91
2018-03-19T16:09:07.229Z,97662.05
2018-03-19T16:11:34.819Z,97667.11
2018-03-19T16:14:02.344Z,97663.28
2018-03-19T16:16:29.853Z,97664.27
2018-03-19T16:34:46.730Z,97674.14
2018-03-19T16:40:50.445Z,97682.27
2018-03-19T16:46:14.564Z,97687.16
2018-03-19T16:59:30.427Z,97692.64
2018-03-19T17:02:21.927Z,97701.71
2018-03-19T17:05:20.826Z,97703.20
2018-03-19T17:07:57.826Z,97710.19
2018-03-19T17:10:32.757Z,97710.83
2018-03-19T17:13:10.255Z,97713.80
2018-03-19T17:15:46.209Z,97718.45
2018-03-19T17:18:18.096Z,97723.44
2018-03-19T17:26:19.663Z,97722.95
2018-03-19T17:29:06.891Z,97728.09
2018-03-19T17:31:53.888Z,97726.43
2018-03-19T17:34:25.411Z,97731.09
2018-03-19T17:40:08.708Z,97740.10
2018-03-19T17:58:22.851Z,97754.09
2018-03-19T18:00:58.598Z,97757.69
2018-03-19T18:08:52.317Z,97764.03
2018-03-19T18:11:42.437Z,97772.02
2018-03-19T18:17:11.677Z,97774.81
2018-03-19T18:19:59.439Z,97785.64
2018-03-19T18:25:16.913Z,97796.32
2018-03-19T18:27:53.418Z,97795.87
2018-03-19T18:30:27.695Z,97793.52
2018-03-19T18:33:05.400Z,97806.63
2018-03-19T18:35:39.485Z,97801.77
2018-03-19T18:38:11.588Z,97804.67
2018-03-19T18:40:46.583Z,97807.84
2018-03-19T18:43:18.596Z,97801.53
2018-03-19T18:49:00.673Z,97806.91
2018-03-19T18:51:34.720Z,97808.99
2018-03-19T18:54:07.394Z,97807.26
2018-03-19T18:56:41.620Z,97815.30
2018-03-19T18:59:12.557Z,97817.80
2018-03-19T19:01:41.548Z,97823.67
2018-03-19T19:04:12.492Z,97819.64
2018-03-19T19:06:44.633Z,97820.83
2018-03-19T19:09:15.264Z,97819.70
2018-03-19T19:11:44.753Z,97824.89
2018-03-19T19:14:15.687Z,97826.53
2018-03-19T19:19:31.685Z,97832.77
2018-03-19T19:22:03.637Z,97832.56
2018-03-19T19:24:31.144Z,97834.67
2018-03-19T19:26:58.703Z,97835.54
2018-03-19T19:29:26.296Z,97840.30
2018-03-19T19:31:54.066Z,97836.30
2018-03-19T19:34:21.666Z,97839.33
2018-03-19T19:36:49.515Z,97836.89
2018-03-19T19:39:17.100Z,97840.85
2018-03-19T19:41:44.664Z,97837.61
2018-03-19T19:44:12.310Z,97842.48
2018-03-19T19:46:39.823Z,97849.05
2018-03-19T19:49:07.359Z,97842.75
2018-03-19T19:51:34.846Z,97842.48
2018-03-19T19:54:02.385Z,97844.81
2018-03-19T19:56:29.884Z,97844.80
2018-03-19T19:58:57.544Z,97851.70
2018-03-19T20:01:25.041Z,97850.38
2018-03-19T20:03:52.610Z,97859.22
2018-03-19T20:06:20.121Z,97861.91
2018-03-19T20:08:47.654Z,97860.78
2018-03-19T20:11:15.146Z,97854.02
2018-03-19T20:13:42.675Z,97865.45
2018-03-19T20:16:10.171Z,97858.02
2018-03-19T20:18:37.707Z,97860.06
2018-03-19T20:21:05.223Z,97861.58
2018-03-19T20:23:32.756Z,97862.72
2018-03-19T20:26:00.287Z,97860.50
2018-03-19T20:28:27.789Z,97852.59
2018-03-19T20:30:55.335Z,97859.23
2018-03-19T20:33:22.884Z,97859.36
2018-03-19T20:35:50.476Z,97861.88
2018-03-19T20:38:17.991Z,97863.39
2018-03-19T20:40:45.512Z,97856.55
2018-03-19T20:43:13.032Z,97862.30
2018-03-19T20:45:40.624Z,97863.48
2018-03-19T20:48:08.199Z,97861.92
2018-03-19T20:50:35.753Z,97861.36
2018-03-19T20:53:03.258Z,97866.31
2018-03-19T20:55:30.828Z,97856.69
2018-03-19T20:57:58.320Z,97862.48
2018-03-19T21:00:25.842Z,97870.20
2018-03-19T21:02:53.345Z,97864.17
2018-03-19T21:05:20.898Z,97868.94
2018-03-19T21:07:48.459Z,97866.55
2018-03-19T21:10:16.080Z,97867.17
2018-03-19T21:12:43.607Z,97862.19
2018-03-19T21:15:11.127Z,97871.66
2018-03-19T21:17:38.611Z,97869.65
2018-03-19T21:20:06.146Z,97871.14
2018-03-19T21:22:33.642Z,97868.92
2018-03-19T21:25:01.175Z,97873.88
2018-03-19T21:27:28.674Z,97876.64
2018-03-19T21:29:56.199Z,97869.92
2018-03-19T21:32:23.725Z,97869.10
2018-03-19T21:34:51.247Z,97866.81
2018-03-19T21:37:18.773Z,97877.72
2018-03-19T21:39:46.308Z,97871.23
2018-03-19T21:42:13.800Z,97877.52
2018-03-19T21:44:41.368Z,97870.52
2018-03-19T21:47:08.868Z,97873.63
2018-03-19T21:49:36.400Z,97872.66
2018-03-19T21:52:03.948Z,97873.25
2018-03-19T21:54:31.440Z,97875.34
2018-03-19T21:56:59.036Z,97869.55
2018-03-19T21:59:26.536Z,97874.08
2018-03-19T22:01:54.055Z,97872.46
2018-03-19T22:04:21.548Z,97878.98
2018-03-19T22:06:49.550Z,97874.62
2018-03-19T22:09:17.067Z,97874.73
2018-03-19T22:11:44.639Z,97878.80
2018-03-19T22:14:12.132Z,97872.93
2018-03-19T22:16:40.672Z,97877.52
2018-03-19T22:19:08.179Z,97876.27
2018-03-19T22:21:35.693Z,97879.19
2018-03-19T22:24:03.200Z,97883.20
2018-03-19T22:26:30.764Z,97878.41
2018-03-19T22:28:58.259Z,97881.58
2018-03-19T22:31:25.823Z,97880.17
2018-03-19T22:33:53.357Z,97876.77
2018-03-19T22:36:20.871Z,97880.72
2018-03-19T22:38:48.408Z,97879.99
2018-03-19T22:41:15.920Z,97884.34
2018-03-19T22:43:43.421Z,97882.84
2018-03-19T22:46:10.936Z,97882.28
2018-03-19T22:48:38.432Z,97885.76
2018-03-19T22:51:05.965Z,97877.88
2018-03-19T22:53:33.546Z,97876.72
2018-03-19T22:56:02.054Z,97880.06
2018-03-19T22:58:29.561Z,97881.20
2018-03-19T23:00:57.175Z,97885.24
2018-03-19T23:03:24.667Z,97879.88
2018-03-19T23:05:52.176Z,97881.81
2018-03-19T23:08:19.670Z,97882.31
2018-03-19T23:10:47.279Z,97885.14
2018-03-19T23:13:14.777Z,97878.61
2018-03-19T23:15:42.297Z,97885.25
2018-03-19T23:18:09.798Z,97883.23
2018-03-19T23:20:37.437Z,97884.91
2018-03-19T23:23:04.971Z,97883.23
2018-03-19T23:25:32.479Z,97885.45
2018-03-19T23:27:59.963Z,97884.23
2018-03-19T23:30:27.463Z,97884.55
2018-03-19T23:32:54.971Z,97886.81
2018-03-19T23:35:22.454Z,97882.70
2018-03-19T23:37:49.976Z,97882.91
2018-03-19T23:40:17.476Z,97882.75
2018-03-19T23:42:44.997Z,97885.14
2018-03-19T23:45:12.496Z,97884.77
2018-03-19T23:47:40.006Z,97889.30
2018-03-19T23:50:07.499Z,97889.33
2018-03-19T23:52:35.085Z,97887.95
2018-03-19T23:55:02.580Z,97887.23
2018-03-19T23:57:30.096Z,97882.87
2018-03-19T23:59:57.663Z,97893.71
